Allgood, Alabama
Current Conditions -  °F | °C
As of 6:55 PM on Wednesday 22 Oct 2014 (Local Time) from KGAD Reporting Station
Clear Clear  
Wind Chill: 14°   Ceiling: Unl
Heat Index: 14°   Visibility: 10mi
Dew Point:   Wind: 6mph
Humidity: 51%   Direction: 10°N
Pressure: 30.12"   Gusts: NA
Location:  33.91°N, 86.51°W
Report Text: KGAD 222355Z 01005KT 10SM CLR 14/04 A3012 RMK AO1 10210 20140 402100060 52007
Loading
Personal Weather Stations






























Interactive Weather Map
Tropical Storm Tracking
New forecast layout! Learn more

10-Day Weather Forecast

Advertisements
Track Severe Weather on mobile